Terminal Aerodrome Forecast
Issued by NWS

Home | Current Version | Previous Version | Text Only | Print | Product List | Glossary On
Versions: 1 2 3 4 5 6 7 8 9 10 11 12
000
FTAK31 PAFA 182339
TAFAOR
TAF
PAOR 182339Z 1900/1924 VRB04G14KT P6SM VCSH SCT050 BKN080 BKN150
     FM190500 00000KT P6SM SCT080 BKN150
     FM191800 VRB04KT P6SM SCT100=

USA.gov is the U.S. government's official web portal to all federal, state and local government web resources and services.